sensor_id;sensor_type;location;lat;lon;timestamp;P1;durP1;ratioP1;P2;durP2;ratioP2
14714;SDS011;7448;52.698;5.186;2022-08-19T00:00:37;0.20;;;0.20;;
14714;SDS011;7448;52.698;5.186;2022-08-19T00:03:04;0.10;;;0.10;;
14714;SDS011;7448;52.698;5.186;2022-08-19T00:05:32;0.20;;;0.20;;
14714;SDS011;7448;52.698;5.186;2022-08-19T00:07:58;0.20;;;0.20;;
14714;SDS011;7448;52.698;5.186;2022-08-19T00:10:25;0.20;;;0.20;;
14714;SDS011;7448;52.698;5.186;2022-08-19T00:12:51;0.20;;;0.20;;
14714;SDS011;7448;52.698;5.186;2022-08-19T00:15:19;0.20;;;0.20;;
14714;SDS011;7448;52.698;5.186;2022-08-19T00:17:46;0.15;;;0.15;;
14714;SDS011;7448;52.698;5.186;2022-08-19T00:20:14;0.20;;;0.20;;
14714;SDS011;7448;52.698;5.186;2022-08-19T00:22:42;0.20;;;0.20;;
14714;SDS011;7448;52.698;5.186;2022-08-19T00:25:09;0.10;;;0.10;;
14714;SDS011;7448;52.698;5.186;2022-08-19T00:27:36;0.10;;;0.10;;
14714;SDS011;7448;52.698;5.186;2022-08-19T00:30:03;0.20;;;0.20;;
14714;SDS011;7448;52.698;5.186;2022-08-19T00:32:30;0.20;;;0.20;;
14714;SDS011;7448;52.698;5.186;2022-08-19T00:34:56;0.15;;;0.15;;
14714;SDS011;7448;52.698;5.186;2022-08-19T00:37:23;0.20;;;0.20;;
14714;SDS011;7448;52.698;5.186;2022-08-19T00:39:52;0.20;;;0.20;;
14714;SDS011;7448;52.698;5.186;2022-08-19T00:42:19;0.20;;;0.20;;
14714;SDS011;7448;52.698;5.186;2022-08-19T00:44:46;0.20;;;0.20;;
14714;SDS011;7448;52.698;5.186;2022-08-19T00:47:14;0.20;;;0.20;;
14714;SDS011;7448;52.698;5.186;2022-08-19T00:52:09;0.20;;;0.20;;
14714;SDS011;7448;52.698;5.186;2022-08-19T00:54:36;0.20;;;0.20;;
14714;SDS011;7448;52.698;5.186;2022-08-19T00:57:05;0.20;;;0.20;;
14714;SDS011;7448;52.698;5.186;2022-08-19T00:59:34;0.20;;;0.20;;
14714;SDS011;7448;52.698;5.186;2022-08-19T01:02:01;0.20;;;0.20;;
14714;SDS011;7448;52.698;5.186;2022-08-19T01:04:27;0.20;;;0.20;;
14714;SDS011;7448;52.698;5.186;2022-08-19T01:06:54;0.10;;;0.10;;
14714;SDS011;7448;52.698;5.186;2022-08-19T01:09:21;0.20;;;0.20;;
14714;SDS011;7448;52.698;5.186;2022-08-19T01:11:48;0.13;;;0.13;;
14714;SDS011;7448;52.698;5.186;2022-08-19T01:14:14;0.20;;;0.20;;
14714;SDS011;7448;52.698;5.186;2022-08-19T01:16:42;0.20;;;0.20;;
14714;SDS011;7448;52.698;5.186;2022-08-19T01:19:10;0.20;;;0.20;;
14714;SDS011;7448;52.698;5.186;2022-08-19T01:21:43;0.20;;;0.20;;
14714;SDS011;7448;52.698;5.186;2022-08-19T01:24:11;0.17;;;0.17;;
14714;SDS011;7448;52.698;5.186;2022-08-19T01:26:40;0.10;;;0.10;;
14714;SDS011;7448;52.698;5.186;2022-08-19T01:29:08;0.10;;;0.10;;
14714;SDS011;7448;52.698;5.186;2022-08-19T01:31:34;0.20;;;0.20;;
14714;SDS011;7448;52.698;5.186;2022-08-19T01:34:02;0.20;;;0.20;;
14714;SDS011;7448;52.698;5.186;2022-08-19T01:36:36;0.20;;;0.20;;
14714;SDS011;7448;52.698;5.186;2022-08-19T01:39:05;0.20;;;0.20;;
14714;SDS011;7448;52.698;5.186;2022-08-19T01:41:31;0.20;;;0.20;;
14714;SDS011;7448;52.698;5.186;2022-08-19T01:43:58;0.20;;;0.20;;
14714;SDS011;7448;52.698;5.186;2022-08-19T01:46:24;0.20;;;0.20;;
14714;SDS011;7448;52.698;5.186;2022-08-19T01:48:51;0.20;;;0.20;;
14714;SDS011;7448;52.698;5.186;2022-08-19T01:51:17;0.20;;;0.20;;
14714;SDS011;7448;52.698;5.186;2022-08-19T01:53:46;0.20;;;0.20;;
14714;SDS011;7448;52.698;5.186;2022-08-19T01:56:13;0.20;;;0.20;;
14714;SDS011;7448;52.698;5.186;2022-08-19T01:58:41;0.20;;;0.20;;
14714;SDS011;7448;52.698;5.186;2022-08-19T02:01:11;0.20;;;0.20;;
14714;SDS011;7448;52.698;5.186;2022-08-19T02:03:39;0.20;;;0.20;;
14714;SDS011;7448;52.698;5.186;2022-08-19T02:06:05;0.20;;;0.20;;
14714;SDS011;7448;52.698;5.186;2022-08-19T02:08:33;0.20;;;0.20;;
14714;SDS011;7448;52.698;5.186;2022-08-19T02:11:00;0.13;;;0.13;;
14714;SDS011;7448;52.698;5.186;2022-08-19T02:13:27;0.10;;;0.10;;
14714;SDS011;7448;52.698;5.186;2022-08-19T02:15:54;0.20;;;0.20;;
14714;SDS011;7448;52.698;5.186;2022-08-19T02:18:20;0.20;;;0.20;;
14714;SDS011;7448;52.698;5.186;2022-08-19T02:20:46;0.20;;;0.20;;
14714;SDS011;7448;52.698;5.186;2022-08-19T02:23:13;0.20;;;0.20;;
14714;SDS011;7448;52.698;5.186;2022-08-19T02:25:40;0.20;;;0.20;;
14714;SDS011;7448;52.698;5.186;2022-08-19T02:28:07;0.20;;;0.20;;
14714;SDS011;7448;52.698;5.186;2022-08-19T02:30:33;0.10;;;0.10;;
14714;SDS011;7448;52.698;5.186;2022-08-19T02:33:00;0.20;;;0.20;;
14714;SDS011;7448;52.698;5.186;2022-08-19T02:35:26;0.10;;;0.10;;
14714;SDS011;7448;52.698;5.186;2022-08-19T02:37:53;0.10;;;0.10;;
14714;SDS011;7448;52.698;5.186;2022-08-19T02:40:38;0.10;;;0.10;;
14714;SDS011;7448;52.698;5.186;2022-08-19T02:43:05;0.20;;;0.20;;
14714;SDS011;7448;52.698;5.186;2022-08-19T02:45:36;0.20;;;0.20;;
14714;SDS011;7448;52.698;5.186;2022-08-19T02:48:03;0.20;;;0.20;;
14714;SDS011;7448;52.698;5.186;2022-08-19T02:50:30;0.20;;;0.20;;
14714;SDS011;7448;52.698;5.186;2022-08-19T02:52:57;0.20;;;0.20;;
14714;SDS011;7448;52.698;5.186;2022-08-19T02:55:23;0.20;;;0.20;;
14714;SDS011;7448;52.698;5.186;2022-08-19T02:57:50;0.20;;;0.20;;
14714;SDS011;7448;52.698;5.186;2022-08-19T03:00:16;0.20;;;0.20;;
14714;SDS011;7448;52.698;5.186;2022-08-19T03:02:43;0.20;;;0.20;;
14714;SDS011;7448;52.698;5.186;2022-08-19T03:05:12;0.20;;;0.20;;
14714;SDS011;7448;52.698;5.186;2022-08-19T03:07:38;0.10;;;0.10;;
14714;SDS011;7448;52.698;5.186;2022-08-19T03:10:05;0.20;;;0.20;;
14714;SDS011;7448;52.698;5.186;2022-08-19T03:12:34;0.20;;;0.20;;
14714;SDS011;7448;52.698;5.186;2022-08-19T03:15:01;0.20;;;0.20;;
14714;SDS011;7448;52.698;5.186;2022-08-19T03:17:28;0.20;;;0.20;;
14714;SDS011;7448;52.698;5.186;2022-08-19T03:19:54;0.20;;;0.20;;
14714;SDS011;7448;52.698;5.186;2022-08-19T03:22:21;0.20;;;0.20;;
14714;SDS011;7448;52.698;5.186;2022-08-19T03:24:47;0.20;;;0.20;;
14714;SDS011;7448;52.698;5.186;2022-08-19T03:27:13;0.20;;;0.20;;
14714;SDS011;7448;52.698;5.186;2022-08-19T03:29:40;0.20;;;0.20;;
14714;SDS011;7448;52.698;5.186;2022-08-19T03:32:06;0.20;;;0.20;;
14714;SDS011;7448;52.698;5.186;2022-08-19T03:34:34;0.20;;;0.20;;
14714;SDS011;7448;52.698;5.186;2022-08-19T03:37:03;0.20;;;0.20;;
14714;SDS011;7448;52.698;5.186;2022-08-19T03:39:30;0.20;;;0.20;;
14714;SDS011;7448;52.698;5.186;2022-08-19T03:41:56;0.17;;;0.17;;
14714;SDS011;7448;52.698;5.186;2022-08-19T03:44:25;0.10;;;0.10;;
14714;SDS011;7448;52.698;5.186;2022-08-19T03:46:53;0.20;;;0.20;;
14714;SDS011;7448;52.698;5.186;2022-08-19T03:49:21;0.20;;;0.20;;
14714;SDS011;7448;52.698;5.186;2022-08-19T03:51:48;0.20;;;0.20;;
14714;SDS011;7448;52.698;5.186;2022-08-19T03:54:20;0.10;;;0.10;;
14714;SDS011;7448;52.698;5.186;2022-08-19T03:56:49;0.20;;;0.20;;
14714;SDS011;7448;52.698;5.186;2022-08-19T03:59:20;0.17;;;0.17;;
14714;SDS011;7448;52.698;5.186;2022-08-19T04:01:48;0.20;;;0.20;;
14714;SDS011;7448;52.698;5.186;2022-08-19T04:04:15;0.20;;;0.20;;
14714;SDS011;7448;52.698;5.186;2022-08-19T04:06:42;0.17;;;0.17;;
14714;SDS011;7448;52.698;5.186;2022-08-19T04:09:10;0.20;;;0.20;;
14714;SDS011;7448;52.698;5.186;2022-08-19T04:11:38;0.20;;;0.20;;
14714;SDS011;7448;52.698;5.186;2022-08-19T04:14:07;0.20;;;0.20;;
14714;SDS011;7448;52.698;5.186;2022-08-19T04:16:34;0.20;;;0.20;;
14714;SDS011;7448;52.698;5.186;2022-08-19T04:19:02;0.20;;;0.20;;
14714;SDS011;7448;52.698;5.186;2022-08-19T04:21:29;0.30;;;0.30;;
14714;SDS011;7448;52.698;5.186;2022-08-19T04:23:56;0.10;;;0.10;;
14714;SDS011;7448;52.698;5.186;2022-08-19T04:26:24;0.20;;;0.20;;
14714;SDS011;7448;52.698;5.186;2022-08-19T04:28:50;0.20;;;0.20;;
14714;SDS011;7448;52.698;5.186;2022-08-19T04:31:20;0.20;;;0.20;;
14714;SDS011;7448;52.698;5.186;2022-08-19T04:33:47;0.20;;;0.20;;
14714;SDS011;7448;52.698;5.186;2022-08-19T04:36:17;0.20;;;0.20;;
14714;SDS011;7448;52.698;5.186;2022-08-19T04:38:46;0.20;;;0.20;;
14714;SDS011;7448;52.698;5.186;2022-08-19T04:41:13;0.15;;;0.15;;
14714;SDS011;7448;52.698;5.186;2022-08-19T04:43:58;0.20;;;0.20;;
14714;SDS011;7448;52.698;5.186;2022-08-19T04:46:24;0.20;;;0.20;;
14714;SDS011;7448;52.698;5.186;2022-08-19T04:48:51;0.30;;;0.30;;
14714;SDS011;7448;52.698;5.186;2022-08-19T04:51:18;0.20;;;0.20;;
14714;SDS011;7448;52.698;5.186;2022-08-19T04:53:46;0.20;;;0.20;;
14714;SDS011;7448;52.698;5.186;2022-08-19T04:56:14;0.17;;;0.17;;
14714;SDS011;7448;52.698;5.186;2022-08-19T04:58:41;0.22;;;0.22;;
14714;SDS011;7448;52.698;5.186;2022-08-19T05:01:19;0.20;;;0.20;;
14714;SDS011;7448;52.698;5.186;2022-08-19T05:03:46;0.20;;;0.20;;
14714;SDS011;7448;52.698;5.186;2022-08-19T05:06:13;0.20;;;0.20;;
14714;SDS011;7448;52.698;5.186;2022-08-19T05:08:41;0.20;;;0.20;;
14714;SDS011;7448;52.698;5.186;2022-08-19T05:11:14;0.20;;;0.20;;
14714;SDS011;7448;52.698;5.186;2022-08-19T05:13:41;0.20;;;0.20;;
14714;SDS011;7448;52.698;5.186;2022-08-19T05:16:08;0.20;;;0.20;;
14714;SDS011;7448;52.698;5.186;2022-08-19T05:18:35;0.20;;;0.20;;
14714;SDS011;7448;52.698;5.186;2022-08-19T05:21:20;0.10;;;0.10;;
14714;SDS011;7448;52.698;5.186;2022-08-19T05:24:06;0.10;;;0.10;;
14714;SDS011;7448;52.698;5.186;2022-08-19T05:26:37;0.20;;;0.20;;
14714;SDS011;7448;52.698;5.186;2022-08-19T05:29:05;0.10;;;0.10;;
14714;SDS011;7448;52.698;5.186;2022-08-19T05:31:33;0.10;;;0.10;;
14714;SDS011;7448;52.698;5.186;2022-08-19T05:34:00;0.10;;;0.10;;
14714;SDS011;7448;52.698;5.186;2022-08-19T05:36:28;0.10;;;0.10;;
14714;SDS011;7448;52.698;5.186;2022-08-19T05:38:54;0.10;;;0.10;;
14714;SDS011;7448;52.698;5.186;2022-08-19T05:41:21;0.20;;;0.20;;
14714;SDS011;7448;52.698;5.186;2022-08-19T05:43:56;0.10;;;0.10;;
14714;SDS011;7448;52.698;5.186;2022-08-19T05:46:23;0.10;;;0.10;;
14714;SDS011;7448;52.698;5.186;2022-08-19T05:48:49;0.10;;;0.10;;
14714;SDS011;7448;52.698;5.186;2022-08-19T05:51:16;0.10;;;0.10;;
14714;SDS011;7448;52.698;5.186;2022-08-19T05:53:42;0.10;;;0.10;;
14714;SDS011;7448;52.698;5.186;2022-08-19T05:56:12;0.10;;;0.10;;
14714;SDS011;7448;52.698;5.186;2022-08-19T05:58:42;0.10;;;0.10;;
14714;SDS011;7448;52.698;5.186;2022-08-19T06:01:11;0.10;;;0.10;;
14714;SDS011;7448;52.698;5.186;2022-08-19T06:03:38;0.10;;;0.10;;
14714;SDS011;7448;52.698;5.186;2022-08-19T06:06:05;0.10;;;0.10;;
14714;SDS011;7448;52.698;5.186;2022-08-19T06:08:33;0.10;;;0.10;;
14714;SDS011;7448;52.698;5.186;2022-08-19T06:11:20;0.10;;;0.10;;
14714;SDS011;7448;52.698;5.186;2022-08-19T06:13:48;0.10;;;0.10;;
14714;SDS011;7448;52.698;5.186;2022-08-19T06:16:17;0.10;;;0.10;;
14714;SDS011;7448;52.698;5.186;2022-08-19T06:18:48;0.00;;;0.00;;
14714;SDS011;7448;52.698;5.186;2022-08-19T06:21:20;0.10;;;0.10;;
14714;SDS011;7448;52.698;5.186;2022-08-19T06:23:48;0.10;;;0.10;;
14714;SDS011;7448;52.698;5.186;2022-08-19T06:26:16;0.10;;;0.10;;
14714;SDS011;7448;52.698;5.186;2022-08-19T06:28:43;0.10;;;0.10;;
14714;SDS011;7448;52.698;5.186;2022-08-19T06:31:12;0.10;;;0.10;;
14714;SDS011;7448;52.698;5.186;2022-08-19T06:33:40;0.00;;;0.00;;
14714;SDS011;7448;52.698;5.186;2022-08-19T06:36:07;0.10;;;0.10;;
14714;SDS011;7448;52.698;5.186;2022-08-19T06:38:33;0.10;;;0.10;;
14714;SDS011;7448;52.698;5.186;2022-08-19T06:41:03;0.10;;;0.10;;
14714;SDS011;7448;52.698;5.186;2022-08-19T06:43:30;0.10;;;0.10;;
14714;SDS011;7448;52.698;5.186;2022-08-19T06:45:56;0.10;;;0.10;;
14714;SDS011;7448;52.698;5.186;2022-08-19T06:48:24;0.10;;;0.10;;
14714;SDS011;7448;52.698;5.186;2022-08-19T06:50:50;0.10;;;0.10;;
14714;SDS011;7448;52.698;5.186;2022-08-19T06:53:17;0.00;;;0.00;;
14714;SDS011;7448;52.698;5.186;2022-08-19T06:55:45;0.10;;;0.10;;
14714;SDS011;7448;52.698;5.186;2022-08-19T06:58:11;0.10;;;0.10;;
14714;SDS011;7448;52.698;5.186;2022-08-19T07:00:37;0.10;;;0.10;;
14714;SDS011;7448;52.698;5.186;2022-08-19T07:03:04;0.10;;;0.10;;
14714;SDS011;7448;52.698;5.186;2022-08-19T07:05:30;0.10;;;0.10;;
14714;SDS011;7448;52.698;5.186;2022-08-19T07:07:57;0.10;;;0.10;;
14714;SDS011;7448;52.698;5.186;2022-08-19T07:10:23;0.10;;;0.10;;
14714;SDS011;7448;52.698;5.186;2022-08-19T07:12:50;0.10;;;0.10;;
14714;SDS011;7448;52.698;5.186;2022-08-19T07:15:17;0.10;;;0.10;;
14714;SDS011;7448;52.698;5.186;2022-08-19T07:17:43;0.10;;;0.10;;
14714;SDS011;7448;52.698;5.186;2022-08-19T07:20:10;0.10;;;0.10;;
14714;SDS011;7448;52.698;5.186;2022-08-19T07:22:37;0.10;;;0.10;;
14714;SDS011;7448;52.698;5.186;2022-08-19T07:25:05;0.10;;;0.10;;
14714;SDS011;7448;52.698;5.186;2022-08-19T07:27:31;0.10;;;0.10;;
14714;SDS011;7448;52.698;5.186;2022-08-19T07:29:59;0.10;;;0.10;;
14714;SDS011;7448;52.698;5.186;2022-08-19T07:32:25;0.10;;;0.10;;
14714;SDS011;7448;52.698;5.186;2022-08-19T07:34:52;0.10;;;0.10;;
14714;SDS011;7448;52.698;5.186;2022-08-19T07:37:18;0.10;;;0.10;;
14714;SDS011;7448;52.698;5.186;2022-08-19T07:39:45;0.10;;;0.10;;
14714;SDS011;7448;52.698;5.186;2022-08-19T07:42:11;0.10;;;0.10;;
14714;SDS011;7448;52.698;5.186;2022-08-19T07:44:39;0.10;;;0.10;;
14714;SDS011;7448;52.698;5.186;2022-08-19T07:47:06;0.10;;;0.10;;
14714;SDS011;7448;52.698;5.186;2022-08-19T07:49:32;0.10;;;0.10;;
14714;SDS011;7448;52.698;5.186;2022-08-19T07:52:00;0.00;;;0.00;;
14714;SDS011;7448;52.698;5.186;2022-08-19T07:54:29;0.10;;;0.10;;
14714;SDS011;7448;52.698;5.186;2022-08-19T07:56:56;0.10;;;0.10;;
14714;SDS011;7448;52.698;5.186;2022-08-19T07:59:22;0.10;;;0.10;;
14714;SDS011;7448;52.698;5.186;2022-08-19T08:01:49;0.10;;;0.10;;
14714;SDS011;7448;52.698;5.186;2022-08-19T08:04:16;0.10;;;0.10;;
14714;SDS011;7448;52.698;5.186;2022-08-19T08:07:02;0.10;;;0.10;;
14714;SDS011;7448;52.698;5.186;2022-08-19T08:09:48;0.10;;;0.10;;
14714;SDS011;7448;52.698;5.186;2022-08-19T08:12:19;0.10;;;0.10;;
14714;SDS011;7448;52.698;5.186;2022-08-19T08:14:49;0.08;;;0.08;;
14714;SDS011;7448;52.698;5.186;2022-08-19T08:17:17;0.10;;;0.10;;
14714;SDS011;7448;52.698;5.186;2022-08-19T08:19:44;0.10;;;0.10;;
14714;SDS011;7448;52.698;5.186;2022-08-19T08:22:12;0.10;;;0.10;;
14714;SDS011;7448;52.698;5.186;2022-08-19T08:25:06;0.10;;;0.10;;
14714;SDS011;7448;52.698;5.186;2022-08-19T08:27:36;0.10;;;0.10;;
14714;SDS011;7448;52.698;5.186;2022-08-19T08:30:11;0.05;;;0.05;;
14714;SDS011;7448;52.698;5.186;2022-08-19T08:32:39;0.10;;;0.10;;
14714;SDS011;7448;52.698;5.186;2022-08-19T08:35:06;0.10;;;0.10;;
14714;SDS011;7448;52.698;5.186;2022-08-19T08:37:33;0.10;;;0.10;;
14714;SDS011;7448;52.698;5.186;2022-08-19T08:40:02;0.10;;;0.10;;
14714;SDS011;7448;52.698;5.186;2022-08-19T08:42:30;0.10;;;0.10;;
14714;SDS011;7448;52.698;5.186;2022-08-19T08:45:00;0.10;;;0.10;;
14714;SDS011;7448;52.698;5.186;2022-08-19T08:47:28;0.10;;;0.10;;
14714;SDS011;7448;52.698;5.186;2022-08-19T08:49:59;0.05;;;0.05;;
14714;SDS011;7448;52.698;5.186;2022-08-19T08:52:31;0.10;;;0.10;;
14714;SDS011;7448;52.698;5.186;2022-08-19T08:55:03;0.10;;;0.10;;
14714;SDS011;7448;52.698;5.186;2022-08-19T09:00:30;0.10;;;0.10;;
14714;SDS011;7448;52.698;5.186;2022-08-19T09:02:57;0.10;;;0.10;;
14714;SDS011;7448;52.698;5.186;2022-08-19T09:05:26;0.10;;;0.10;;
14714;SDS011;7448;52.698;5.186;2022-08-19T09:08:04;0.10;;;0.10;;
14714;SDS011;7448;52.698;5.186;2022-08-19T09:15:48;0.10;;;0.10;;
14714;SDS011;7448;52.698;5.186;2022-08-19T09:18:17;0.10;;;0.10;;
14714;SDS011;7448;52.698;5.186;2022-08-19T09:20:44;0.10;;;0.10;;
14714;SDS011;7448;52.698;5.186;2022-08-19T09:23:12;0.10;;;0.10;;
14714;SDS011;7448;52.698;5.186;2022-08-19T09:25:39;0.00;;;0.00;;
14714;SDS011;7448;52.698;5.186;2022-08-19T09:28:05;0.10;;;0.10;;
14714;SDS011;7448;52.698;5.186;2022-08-19T09:30:33;0.10;;;0.10;;
14714;SDS011;7448;52.698;5.186;2022-08-19T09:33:00;0.00;;;0.00;;
14714;SDS011;7448;52.698;5.186;2022-08-19T09:35:28;0.10;;;0.10;;
14714;SDS011;7448;52.698;5.186;2022-08-19T09:37:55;0.10;;;0.10;;
14714;SDS011;7448;52.698;5.186;2022-08-19T09:40:22;0.08;;;0.08;;
14714;SDS011;7448;52.698;5.186;2022-08-19T09:42:49;0.10;;;0.10;;
14714;SDS011;7448;52.698;5.186;2022-08-19T09:45:16;0.10;;;0.10;;
14714;SDS011;7448;52.698;5.186;2022-08-19T09:47:43;0.10;;;0.10;;
14714;SDS011;7448;52.698;5.186;2022-08-19T09:50:10;0.10;;;0.10;;
14714;SDS011;7448;52.698;5.186;2022-08-19T09:52:37;0.10;;;0.10;;
14714;SDS011;7448;52.698;5.186;2022-08-19T09:55:05;0.10;;;0.10;;
14714;SDS011;7448;52.698;5.186;2022-08-19T09:57:31;0.10;;;0.10;;
14714;SDS011;7448;52.698;5.186;2022-08-19T09:59:58;0.10;;;0.10;;
14714;SDS011;7448;52.698;5.186;2022-08-19T10:02:25;0.10;;;0.10;;
14714;SDS011;7448;52.698;5.186;2022-08-19T10:04:51;0.10;;;0.10;;
14714;SDS011;7448;52.698;5.186;2022-08-19T10:07:38;0.10;;;0.10;;
14714;SDS011;7448;52.698;5.186;2022-08-19T10:10:05;0.10;;;0.10;;
14714;SDS011;7448;52.698;5.186;2022-08-19T10:12:32;0.10;;;0.10;;
14714;SDS011;7448;52.698;5.186;2022-08-19T10:14:59;0.10;;;0.10;;
14714;SDS011;7448;52.698;5.186;2022-08-19T10:17:26;0.10;;;0.10;;
14714;SDS011;7448;52.698;5.186;2022-08-19T10:19:52;0.10;;;0.10;;
14714;SDS011;7448;52.698;5.186;2022-08-19T10:22:19;0.10;;;0.10;;
14714;SDS011;7448;52.698;5.186;2022-08-19T10:24:45;0.10;;;0.10;;
14714;SDS011;7448;52.698;5.186;2022-08-19T10:27:12;0.10;;;0.10;;
14714;SDS011;7448;52.698;5.186;2022-08-19T10:29:39;0.10;;;0.10;;
14714;SDS011;7448;52.698;5.186;2022-08-19T10:32:07;0.10;;;0.10;;
14714;SDS011;7448;52.698;5.186;2022-08-19T10:34:35;0.10;;;0.10;;
14714;SDS011;7448;52.698;5.186;2022-08-19T10:37:02;0.10;;;0.10;;
14714;SDS011;7448;52.698;5.186;2022-08-19T10:39:32;0.10;;;0.10;;
14714;SDS011;7448;52.698;5.186;2022-08-19T10:41:58;0.10;;;0.10;;
14714;SDS011;7448;52.698;5.186;2022-08-19T10:44:25;0.10;;;0.10;;
14714;SDS011;7448;52.698;5.186;2022-08-19T10:46:53;0.10;;;0.10;;
14714;SDS011;7448;52.698;5.186;2022-08-19T10:49:20;0.10;;;0.10;;
14714;SDS011;7448;52.698;5.186;2022-08-19T10:51:48;0.10;;;0.10;;
14714;SDS011;7448;52.698;5.186;2022-08-19T10:54:33;0.10;;;0.10;;
14714;SDS011;7448;52.698;5.186;2022-08-19T10:57:18;0.10;;;0.10;;
14714;SDS011;7448;52.698;5.186;2022-08-19T10:59:45;0.10;;;0.10;;
14714;SDS011;7448;52.698;5.186;2022-08-19T11:02:12;0.10;;;0.10;;
14714;SDS011;7448;52.698;5.186;2022-08-19T11:04:39;0.10;;;0.10;;
14714;SDS011;7448;52.698;5.186;2022-08-19T11:07:06;0.10;;;0.10;;
14714;SDS011;7448;52.698;5.186;2022-08-19T11:09:36;0.10;;;0.10;;
14714;SDS011;7448;52.698;5.186;2022-08-19T11:12:04;0.10;;;0.10;;
14714;SDS011;7448;52.698;5.186;2022-08-19T11:14:31;0.10;;;0.10;;
14714;SDS011;7448;52.698;5.186;2022-08-19T11:16:59;0.10;;;0.10;;
14714;SDS011;7448;52.698;5.186;2022-08-19T11:19:25;0.10;;;0.10;;
14714;SDS011;7448;52.698;5.186;2022-08-19T11:21:52;0.10;;;0.10;;
14714;SDS011;7448;52.698;5.186;2022-08-19T11:24:20;0.10;;;0.10;;
14714;SDS011;7448;52.698;5.186;2022-08-19T11:26:48;0.10;;;0.10;;
14714;SDS011;7448;52.698;5.186;2022-08-19T11:29:15;0.10;;;0.10;;
14714;SDS011;7448;52.698;5.186;2022-08-19T11:31:43;0.10;;;0.10;;
14714;SDS011;7448;52.698;5.186;2022-08-19T11:34:11;0.10;;;0.10;;
14714;SDS011;7448;52.698;5.186;2022-08-19T11:36:39;0.10;;;0.10;;
14714;SDS011;7448;52.698;5.186;2022-08-19T11:39:06;0.10;;;0.10;;
14714;SDS011;7448;52.698;5.186;2022-08-19T11:41:33;0.10;;;0.10;;
14714;SDS011;7448;52.698;5.186;2022-08-19T11:43:59;0.10;;;0.10;;
14714;SDS011;7448;52.698;5.186;2022-08-19T11:46:28;0.10;;;0.10;;
14714;SDS011;7448;52.698;5.186;2022-08-19T11:48:56;0.10;;;0.10;;
14714;SDS011;7448;52.698;5.186;2022-08-19T11:51:23;0.10;;;0.10;;
14714;SDS011;7448;52.698;5.186;2022-08-19T11:53:50;0.10;;;0.10;;
14714;SDS011;7448;52.698;5.186;2022-08-19T11:56:17;0.10;;;0.10;;
14714;SDS011;7448;52.698;5.186;2022-08-19T11:58:44;0.10;;;0.10;;
14714;SDS011;7448;52.698;5.186;2022-08-19T12:01:11;0.10;;;0.10;;
14714;SDS011;7448;52.698;5.186;2022-08-19T12:03:39;0.10;;;0.10;;
14714;SDS011;7448;52.698;5.186;2022-08-19T12:06:06;0.10;;;0.10;;
14714;SDS011;7448;52.698;5.186;2022-08-19T12:08:34;0.10;;;0.10;;
14714;SDS011;7448;52.698;5.186;2022-08-19T12:11:00;0.10;;;0.10;;
14714;SDS011;7448;52.698;5.186;2022-08-19T12:13:27;0.10;;;0.10;;
14714;SDS011;7448;52.698;5.186;2022-08-19T12:15:54;0.10;;;0.10;;
14714;SDS011;7448;52.698;5.186;2022-08-19T12:18:20;0.10;;;0.10;;
14714;SDS011;7448;52.698;5.186;2022-08-19T12:20:47;0.10;;;0.10;;
14714;SDS011;7448;52.698;5.186;2022-08-19T12:23:13;0.10;;;0.10;;
14714;SDS011;7448;52.698;5.186;2022-08-19T12:25:44;0.10;;;0.10;;
14714;SDS011;7448;52.698;5.186;2022-08-19T12:28:20;0.10;;;0.10;;
14714;SDS011;7448;52.698;5.186;2022-08-19T12:30:48;0.10;;;0.10;;
14714;SDS011;7448;52.698;5.186;2022-08-19T12:33:18;0.10;;;0.10;;
14714;SDS011;7448;52.698;5.186;2022-08-19T12:35:50;0.10;;;0.10;;
14714;SDS011;7448;52.698;5.186;2022-08-19T12:38:17;0.10;;;0.10;;
14714;SDS011;7448;52.698;5.186;2022-08-19T12:40:46;0.10;;;0.10;;
14714;SDS011;7448;52.698;5.186;2022-08-19T12:43:14;0.10;;;0.10;;
14714;SDS011;7448;52.698;5.186;2022-08-19T12:45:41;0.10;;;0.10;;
14714;SDS011;7448;52.698;5.186;2022-08-19T12:48:10;0.10;;;0.10;;
14714;SDS011;7448;52.698;5.186;2022-08-19T12:50:41;0.10;;;0.10;;
14714;SDS011;7448;52.698;5.186;2022-08-19T12:53:08;0.10;;;0.10;;
14714;SDS011;7448;52.698;5.186;2022-08-19T12:55:34;0.10;;;0.10;;
14714;SDS011;7448;52.698;5.186;2022-08-19T12:58:01;0.10;;;0.10;;
14714;SDS011;7448;52.698;5.186;2022-08-19T13:00:28;0.10;;;0.10;;
14714;SDS011;7448;52.698;5.186;2022-08-19T13:02:55;0.10;;;0.10;;
14714;SDS011;7448;52.698;5.186;2022-08-19T13:05:23;0.10;;;0.10;;
14714;SDS011;7448;52.698;5.186;2022-08-19T13:07:50;0.10;;;0.10;;
14714;SDS011;7448;52.698;5.186;2022-08-19T13:10:19;0.10;;;0.10;;
14714;SDS011;7448;52.698;5.186;2022-08-19T13:12:47;0.10;;;0.10;;
14714;SDS011;7448;52.698;5.186;2022-08-19T13:15:15;0.10;;;0.10;;
14714;SDS011;7448;52.698;5.186;2022-08-19T13:17:46;0.10;;;0.10;;
14714;SDS011;7448;52.698;5.186;2022-08-19T13:20:14;0.10;;;0.10;;
14714;SDS011;7448;52.698;5.186;2022-08-19T13:22:41;0.00;;;0.00;;
14714;SDS011;7448;52.698;5.186;2022-08-19T13:25:12;0.10;;;0.10;;
14714;SDS011;7448;52.698;5.186;2022-08-19T13:27:39;0.00;;;0.00;;
14714;SDS011;7448;52.698;5.186;2022-08-19T13:30:07;0.00;;;0.00;;
14714;SDS011;7448;52.698;5.186;2022-08-19T13:32:52;0.10;;;0.10;;
14714;SDS011;7448;52.698;5.186;2022-08-19T13:35:38;0.10;;;0.10;;
14714;SDS011;7448;52.698;5.186;2022-08-19T13:38:05;0.10;;;0.10;;
14714;SDS011;7448;52.698;5.186;2022-08-19T13:40:32;0.10;;;0.10;;
14714;SDS011;7448;52.698;5.186;2022-08-19T13:43:02;0.10;;;0.10;;
14714;SDS011;7448;52.698;5.186;2022-08-19T13:45:29;0.10;;;0.10;;
14714;SDS011;7448;52.698;5.186;2022-08-19T13:48:00;0.10;;;0.10;;
14714;SDS011;7448;52.698;5.186;2022-08-19T13:50:32;0.10;;;0.10;;
14714;SDS011;7448;52.698;5.186;2022-08-19T13:52:58;0.10;;;0.10;;
14714;SDS011;7448;52.698;5.186;2022-08-19T13:55:26;0.03;;;0.03;;
14714;SDS011;7448;52.698;5.186;2022-08-19T13:57:54;0.10;;;0.10;;
14714;SDS011;7448;52.698;5.186;2022-08-19T14:00:22;0.10;;;0.10;;
14714;SDS011;7448;52.698;5.186;2022-08-19T14:02:52;0.10;;;0.10;;
14714;SDS011;7448;52.698;5.186;2022-08-19T14:05:19;0.10;;;0.10;;
14714;SDS011;7448;52.698;5.186;2022-08-19T14:07:46;0.10;;;0.10;;
14714;SDS011;7448;52.698;5.186;2022-08-19T14:10:14;0.10;;;0.10;;
14714;SDS011;7448;52.698;5.186;2022-08-19T14:12:41;0.10;;;0.10;;
14714;SDS011;7448;52.698;5.186;2022-08-19T14:15:08;0.10;;;0.10;;
14714;SDS011;7448;52.698;5.186;2022-08-19T14:17:39;0.10;;;0.10;;
14714;SDS011;7448;52.698;5.186;2022-08-19T14:20:06;0.10;;;0.10;;
14714;SDS011;7448;52.698;5.186;2022-08-19T14:22:35;0.10;;;0.10;;
14714;SDS011;7448;52.698;5.186;2022-08-19T14:25:03;0.00;;;0.00;;
14714;SDS011;7448;52.698;5.186;2022-08-19T14:27:32;0.10;;;0.10;;
14714;SDS011;7448;52.698;5.186;2022-08-19T14:29:58;0.10;;;0.10;;
14714;SDS011;7448;52.698;5.186;2022-08-19T14:32:25;0.10;;;0.10;;
14714;SDS011;7448;52.698;5.186;2022-08-19T14:34:52;0.10;;;0.10;;
14714;SDS011;7448;52.698;5.186;2022-08-19T14:37:20;0.10;;;0.10;;
14714;SDS011;7448;52.698;5.186;2022-08-19T14:39:47;0.10;;;0.10;;
14714;SDS011;7448;52.698;5.186;2022-08-19T14:42:14;0.10;;;0.10;;
14714;SDS011;7448;52.698;5.186;2022-08-19T14:44:41;0.10;;;0.10;;
14714;SDS011;7448;52.698;5.186;2022-08-19T14:47:08;0.10;;;0.10;;
14714;SDS011;7448;52.698;5.186;2022-08-19T14:49:34;0.10;;;0.10;;
14714;SDS011;7448;52.698;5.186;2022-08-19T14:52:02;0.00;;;0.00;;
14714;SDS011;7448;52.698;5.186;2022-08-19T14:54:29;0.10;;;0.10;;
14714;SDS011;7448;52.698;5.186;2022-08-19T14:56:55;0.10;;;0.10;;
14714;SDS011;7448;52.698;5.186;2022-08-19T14:59:22;0.10;;;0.10;;
14714;SDS011;7448;52.698;5.186;2022-08-19T15:01:48;0.10;;;0.10;;
14714;SDS011;7448;52.698;5.186;2022-08-19T15:04:15;0.10;;;0.10;;
14714;SDS011;7448;52.698;5.186;2022-08-19T15:06:42;0.10;;;0.10;;
14714;SDS011;7448;52.698;5.186;2022-08-19T15:09:09;0.10;;;0.10;;
14714;SDS011;7448;52.698;5.186;2022-08-19T15:11:35;0.10;;;0.10;;
14714;SDS011;7448;52.698;5.186;2022-08-19T15:14:03;0.10;;;0.10;;
14714;SDS011;7448;52.698;5.186;2022-08-19T15:16:34;0.10;;;0.10;;